sensor_id;sensor_type;location;lat;lon;timestamp;P1;durP1;ratioP1;P2;durP2;ratioP2
60372;SDS011;46216;52.220;5.134;2022-07-30T00:01:38;13.75;;;6.70;;
60372;SDS011;46216;52.220;5.134;2022-07-30T00:04:03;9.98;;;6.47;;
60372;SDS011;46216;52.220;5.134;2022-07-30T00:06:29;14.25;;;7.15;;
60372;SDS011;46216;52.220;5.134;2022-07-30T00:08:54;8.75;;;5.70;;
60372;SDS011;46216;52.220;5.134;2022-07-30T00:11:19;11.55;;;7.10;;
60372;SDS011;46216;52.220;5.134;2022-07-30T00:13:46;15.75;;;7.38;;
60372;SDS011;46216;52.220;5.134;2022-07-30T00:16:11;8.40;;;6.53;;
60372;SDS011;46216;52.220;5.134;2022-07-30T00:18:36;9.88;;;7.20;;
60372;SDS011;46216;52.220;5.134;2022-07-30T00:21:02;12.60;;;7.15;;
60372;SDS011;46216;52.220;5.134;2022-07-30T00:23:27;11.25;;;6.90;;
60372;SDS011;46216;52.220;5.134;2022-07-30T00:25:52;11.60;;;7.60;;
60372;SDS011;46216;52.220;5.134;2022-07-30T00:28:18;11.65;;;7.07;;
60372;SDS011;46216;52.220;5.134;2022-07-30T00:30:43;13.98;;;7.55;;
60372;SDS011;46216;52.220;5.134;2022-07-30T00:33:08;11.23;;;7.13;;
60372;SDS011;46216;52.220;5.134;2022-07-30T00:35:34;15.75;;;7.43;;
60372;SDS011;46216;52.220;5.134;2022-07-30T00:37:59;10.55;;;7.22;;
60372;SDS011;46216;52.220;5.134;2022-07-30T00:40:24;15.55;;;7.63;;
60372;SDS011;46216;52.220;5.134;2022-07-30T00:42:50;11.07;;;7.38;;
60372;SDS011;46216;52.220;5.134;2022-07-30T00:45:15;11.68;;;7.75;;
60372;SDS011;46216;52.220;5.134;2022-07-30T00:47:41;10.73;;;7.13;;
60372;SDS011;46216;52.220;5.134;2022-07-30T00:50:08;10.82;;;7.28;;
60372;SDS011;46216;52.220;5.134;2022-07-30T00:52:35;11.15;;;7.60;;
60372;SDS011;46216;52.220;5.134;2022-07-30T00:55:02;14.88;;;7.22;;
60372;SDS011;46216;52.220;5.134;2022-07-30T00:57:28;9.38;;;8.48;;
60372;SDS011;46216;52.220;5.134;2022-07-30T00:59:54;15.70;;;8.10;;
60372;SDS011;46216;52.220;5.134;2022-07-30T01:02:19;12.23;;;7.70;;
60372;SDS011;46216;52.220;5.134;2022-07-30T01:04:45;11.63;;;7.90;;
60372;SDS011;46216;52.220;5.134;2022-07-30T01:07:10;13.50;;;7.97;;
60372;SDS011;46216;52.220;5.134;2022-07-30T01:09:36;15.45;;;8.70;;
60372;SDS011;46216;52.220;5.134;2022-07-30T01:12:05;15.70;;;9.45;;
60372;SDS011;46216;52.220;5.134;2022-07-30T01:14:34;11.80;;;9.43;;
60372;SDS011;46216;52.220;5.134;2022-07-30T01:17:01;13.23;;;10.02;;
60372;SDS011;46216;52.220;5.134;2022-07-30T01:19:31;17.38;;;10.43;;
60372;SDS011;46216;52.220;5.134;2022-07-30T01:27:29;14.05;;;10.48;;
60372;SDS011;46216;52.220;5.134;2022-07-30T01:29:57;15.27;;;10.40;;
60372;SDS011;46216;52.220;5.134;2022-07-30T01:32:25;14.45;;;10.15;;
60372;SDS011;46216;52.220;5.134;2022-07-30T01:34:52;14.90;;;10.52;;
60372;SDS011;46216;52.220;5.134;2022-07-30T01:37:21;14.32;;;10.63;;
60372;SDS011;46216;52.220;5.134;2022-07-30T01:39:48;15.45;;;9.77;;
60372;SDS011;46216;52.220;5.134;2022-07-30T01:42:15;15.32;;;11.48;;
60372;SDS011;46216;52.220;5.134;2022-07-30T01:44:42;15.02;;;10.73;;
60372;SDS011;46216;52.220;5.134;2022-07-30T01:47:09;14.52;;;11.00;;
60372;SDS011;46216;52.220;5.134;2022-07-30T01:49:35;13.73;;;11.20;;
60372;SDS011;46216;52.220;5.134;2022-07-30T01:52:02;16.83;;;11.57;;
60372;SDS011;46216;52.220;5.134;2022-07-30T01:54:29;13.77;;;11.15;;
60372;SDS011;46216;52.220;5.134;2022-07-30T01:56:57;13.52;;;10.98;;
60372;SDS011;46216;52.220;5.134;2022-07-30T01:59:25;14.13;;;11.00;;
60372;SDS011;46216;52.220;5.134;2022-07-30T02:01:52;15.05;;;10.88;;
60372;SDS011;46216;52.220;5.134;2022-07-30T02:04:17;15.05;;;10.63;;
60372;SDS011;46216;52.220;5.134;2022-07-30T02:06:45;15.88;;;11.88;;
60372;SDS011;46216;52.220;5.134;2022-07-30T02:09:14;15.38;;;12.07;;
60372;SDS011;46216;52.220;5.134;2022-07-30T02:11:46;13.20;;;11.80;;
60372;SDS011;46216;52.220;5.134;2022-07-30T02:14:40;16.30;;;12.38;;
60372;SDS011;46216;52.220;5.134;2022-07-30T02:17:12;13.38;;;11.48;;
60372;SDS011;46216;52.220;5.134;2022-07-30T02:19:42;19.75;;;13.20;;
60372;SDS011;46216;52.220;5.134;2022-07-30T02:22:13;18.35;;;12.60;;
60372;SDS011;46216;52.220;5.134;2022-07-30T02:24:41;17.63;;;14.00;;
60372;SDS011;46216;52.220;5.134;2022-07-30T02:27:08;16.60;;;13.68;;
60372;SDS011;46216;52.220;5.134;2022-07-30T02:29:38;16.88;;;15.15;;
60372;SDS011;46216;52.220;5.134;2022-07-30T02:32:05;21.55;;;14.90;;
60372;SDS011;46216;52.220;5.134;2022-07-30T02:34:34;16.33;;;14.30;;
60372;SDS011;46216;52.220;5.134;2022-07-30T02:37:01;20.08;;;13.95;;
60372;SDS011;46216;52.220;5.134;2022-07-30T02:39:28;21.23;;;14.05;;
60372;SDS011;46216;52.220;5.134;2022-07-30T02:41:55;20.95;;;14.25;;
60372;SDS011;46216;52.220;5.134;2022-07-30T02:44:21;18.25;;;12.77;;
60372;SDS011;46216;52.220;5.134;2022-07-30T02:46:48;17.70;;;14.02;;
60372;SDS011;46216;52.220;5.134;2022-07-30T02:49:15;16.33;;;13.65;;
60372;SDS011;46216;52.220;5.134;2022-07-30T02:51:42;17.00;;;14.15;;
60372;SDS011;46216;52.220;5.134;2022-07-30T02:54:11;15.18;;;12.55;;
60372;SDS011;46216;52.220;5.134;2022-07-30T02:56:40;18.10;;;13.25;;
60372;SDS011;46216;52.220;5.134;2022-07-30T02:59:07;17.30;;;12.68;;
60372;SDS011;46216;52.220;5.134;2022-07-30T03:01:34;15.38;;;12.90;;
60372;SDS011;46216;52.220;5.134;2022-07-30T03:04:00;16.30;;;13.00;;
60372;SDS011;46216;52.220;5.134;2022-07-30T03:06:27;17.95;;;15.23;;
60372;SDS011;46216;52.220;5.134;2022-07-30T03:08:53;22.67;;;16.30;;
60372;SDS011;46216;52.220;5.134;2022-07-30T03:11:20;18.17;;;15.05;;
60372;SDS011;46216;52.220;5.134;2022-07-30T03:13:47;16.98;;;15.18;;
60372;SDS011;46216;52.220;5.134;2022-07-30T03:16:12;19.48;;;15.82;;
60372;SDS011;46216;52.220;5.134;2022-07-30T03:18:41;20.55;;;16.52;;
60372;SDS011;46216;52.220;5.134;2022-07-30T03:21:08;19.92;;;15.18;;
60372;SDS011;46216;52.220;5.134;2022-07-30T03:23:35;21.05;;;16.23;;
60372;SDS011;46216;52.220;5.134;2022-07-30T03:26:02;20.83;;;17.10;;
60372;SDS011;46216;52.220;5.134;2022-07-30T03:28:30;20.23;;;16.58;;
60372;SDS011;46216;52.220;5.134;2022-07-30T03:30:58;18.90;;;16.65;;
60372;SDS011;46216;52.220;5.134;2022-07-30T03:33:23;21.75;;;16.63;;
60372;SDS011;46216;52.220;5.134;2022-07-30T03:35:50;21.02;;;17.70;;
60372;SDS011;46216;52.220;5.134;2022-07-30T03:38:16;21.05;;;18.05;;
60372;SDS011;46216;52.220;5.134;2022-07-30T03:40:42;20.02;;;17.92;;
60372;SDS011;46216;52.220;5.134;2022-07-30T03:43:09;21.63;;;17.58;;
60372;SDS011;46216;52.220;5.134;2022-07-30T03:45:35;19.27;;;17.00;;
60372;SDS011;46216;52.220;5.134;2022-07-30T03:48:03;19.30;;;17.30;;
60372;SDS011;46216;52.220;5.134;2022-07-30T03:50:31;20.42;;;16.95;;
60372;SDS011;46216;52.220;5.134;2022-07-30T03:52:59;18.27;;;16.15;;
60372;SDS011;46216;52.220;5.134;2022-07-30T03:55:25;20.17;;;17.15;;
60372;SDS011;46216;52.220;5.134;2022-07-30T03:57:51;20.20;;;17.55;;
60372;SDS011;46216;52.220;5.134;2022-07-30T04:00:16;21.85;;;17.05;;
60372;SDS011;46216;52.220;5.134;2022-07-30T04:02:42;18.63;;;16.73;;
60372;SDS011;46216;52.220;5.134;2022-07-30T04:05:10;16.13;;;14.43;;
60372;SDS011;46216;52.220;5.134;2022-07-30T04:07:37;16.05;;;13.80;;
60372;SDS011;46216;52.220;5.134;2022-07-30T04:10:02;14.25;;;12.80;;
60372;SDS011;46216;52.220;5.134;2022-07-30T04:12:28;14.63;;;13.23;;
60372;SDS011;46216;52.220;5.134;2022-07-30T04:14:53;15.60;;;13.80;;
60372;SDS011;46216;52.220;5.134;2022-07-30T04:17:21;14.68;;;12.77;;
60372;SDS011;46216;52.220;5.134;2022-07-30T04:20:06;17.50;;;15.23;;
60372;SDS011;46216;52.220;5.134;2022-07-30T04:22:38;18.13;;;16.23;;
60372;SDS011;46216;52.220;5.134;2022-07-30T04:25:05;17.83;;;15.77;;
60372;SDS011;46216;52.220;5.134;2022-07-30T04:27:31;19.13;;;16.33;;
60372;SDS011;46216;52.220;5.134;2022-07-30T04:29:58;17.02;;;15.20;;
60372;SDS011;46216;52.220;5.134;2022-07-30T04:32:24;20.60;;;15.75;;
60372;SDS011;46216;52.220;5.134;2022-07-30T04:34:52;20.42;;;15.70;;
60372;SDS011;46216;52.220;5.134;2022-07-30T04:37:20;20.65;;;15.73;;
60372;SDS011;46216;52.220;5.134;2022-07-30T04:39:47;19.17;;;16.65;;
60372;SDS011;46216;52.220;5.134;2022-07-30T04:42:15;18.65;;;16.52;;
60372;SDS011;46216;52.220;5.134;2022-07-30T04:44:40;17.38;;;15.68;;
60372;SDS011;46216;52.220;5.134;2022-07-30T04:47:07;17.83;;;15.63;;
60372;SDS011;46216;52.220;5.134;2022-07-30T04:49:32;20.65;;;15.75;;
60372;SDS011;46216;52.220;5.134;2022-07-30T04:51:59;19.15;;;16.80;;
60372;SDS011;46216;52.220;5.134;2022-07-30T04:54:47;17.05;;;14.90;;
60372;SDS011;46216;52.220;5.134;2022-07-30T04:57:18;16.60;;;14.98;;
60372;SDS011;46216;52.220;5.134;2022-07-30T04:59:44;16.92;;;15.02;;
60372;SDS011;46216;52.220;5.134;2022-07-30T05:02:10;17.73;;;14.18;;
60372;SDS011;46216;52.220;5.134;2022-07-30T05:04:36;17.83;;;14.70;;
60372;SDS011;46216;52.220;5.134;2022-07-30T05:07:04;19.33;;;14.23;;
60372;SDS011;46216;52.220;5.134;2022-07-30T05:09:32;22.25;;;14.48;;
60372;SDS011;46216;52.220;5.134;2022-07-30T05:11:58;15.75;;;12.85;;
60372;SDS011;46216;52.220;5.134;2022-07-30T05:14:23;15.18;;;12.18;;
60372;SDS011;46216;52.220;5.134;2022-07-30T05:16:50;16.67;;;13.15;;
60372;SDS011;46216;52.220;5.134;2022-07-30T05:19:17;15.32;;;12.93;;
60372;SDS011;46216;52.220;5.134;2022-07-30T05:21:43;17.75;;;13.80;;
60372;SDS011;46216;52.220;5.134;2022-07-30T05:24:09;15.52;;;13.43;;
60372;SDS011;46216;52.220;5.134;2022-07-30T05:26:34;14.45;;;12.15;;
60372;SDS011;46216;52.220;5.134;2022-07-30T05:29:00;16.75;;;11.82;;
60372;SDS011;46216;52.220;5.134;2022-07-30T05:31:25;15.73;;;11.05;;
60372;SDS011;46216;52.220;5.134;2022-07-30T05:33:50;14.15;;;11.95;;
60372;SDS011;46216;52.220;5.134;2022-07-30T05:36:17;13.60;;;10.40;;
60372;SDS011;46216;52.220;5.134;2022-07-30T05:38:43;13.15;;;11.10;;
60372;SDS011;46216;52.220;5.134;2022-07-30T05:41:08;14.40;;;10.25;;
60372;SDS011;46216;52.220;5.134;2022-07-30T05:43:33;15.32;;;9.15;;
60372;SDS011;46216;52.220;5.134;2022-07-30T05:45:59;11.50;;;8.40;;
60372;SDS011;46216;52.220;5.134;2022-07-30T05:48:24;11.18;;;8.23;;
60372;SDS011;46216;52.220;5.134;2022-07-30T05:50:50;12.93;;;7.47;;
60372;SDS011;46216;52.220;5.134;2022-07-30T05:53:16;10.90;;;6.80;;
60372;SDS011;46216;52.220;5.134;2022-07-30T05:55:41;12.88;;;7.03;;
60372;SDS011;46216;52.220;5.134;2022-07-30T05:58:06;11.25;;;6.55;;
60372;SDS011;46216;52.220;5.134;2022-07-30T06:00:31;15.63;;;6.22;;
60372;SDS011;46216;52.220;5.134;2022-07-30T06:02:59;11.40;;;6.15;;
60372;SDS011;46216;52.220;5.134;2022-07-30T06:05:24;10.98;;;6.13;;
60372;SDS011;46216;52.220;5.134;2022-07-30T06:07:50;10.68;;;5.72;;
60372;SDS011;46216;52.220;5.134;2022-07-30T06:10:15;14.73;;;6.05;;
60372;SDS011;46216;52.220;5.134;2022-07-30T06:12:40;11.35;;;5.85;;
60372;SDS011;46216;52.220;5.134;2022-07-30T06:15:07;12.75;;;5.80;;
60372;SDS011;46216;52.220;5.134;2022-07-30T06:17:39;13.27;;;5.78;;
60372;SDS011;46216;52.220;5.134;2022-07-30T06:20:05;10.63;;;5.85;;
60372;SDS011;46216;52.220;5.134;2022-07-30T06:22:31;10.75;;;5.60;;
60372;SDS011;46216;52.220;5.134;2022-07-30T06:24:56;11.60;;;5.13;;
60372;SDS011;46216;52.220;5.134;2022-07-30T06:27:21;7.97;;;5.13;;
60372;SDS011;46216;52.220;5.134;2022-07-30T06:29:47;6.55;;;4.40;;
60372;SDS011;46216;52.220;5.134;2022-07-30T06:32:12;8.35;;;4.60;;
60372;SDS011;46216;52.220;5.134;2022-07-30T06:34:38;7.40;;;4.60;;
60372;SDS011;46216;52.220;5.134;2022-07-30T06:37:03;12.55;;;4.95;;
60372;SDS011;46216;52.220;5.134;2022-07-30T06:39:28;6.72;;;4.72;;
60372;SDS011;46216;52.220;5.134;2022-07-30T06:41:54;12.18;;;4.45;;
60372;SDS011;46216;52.220;5.134;2022-07-30T06:44:19;11.52;;;4.60;;
60372;SDS011;46216;52.220;5.134;2022-07-30T06:46:44;8.35;;;4.53;;
60372;SDS011;46216;52.220;5.134;2022-07-30T06:49:10;6.28;;;4.53;;
60372;SDS011;46216;52.220;5.134;2022-07-30T06:51:35;8.40;;;4.22;;
60372;SDS011;46216;52.220;5.134;2022-07-30T06:54:01;7.22;;;4.10;;
60372;SDS011;46216;52.220;5.134;2022-07-30T06:56:26;7.95;;;4.03;;
60372;SDS011;46216;52.220;5.134;2022-07-30T06:58:51;5.80;;;3.80;;
60372;SDS011;46216;52.220;5.134;2022-07-30T07:01:16;8.15;;;3.72;;
60372;SDS011;46216;52.220;5.134;2022-07-30T07:03:42;5.03;;;3.42;;
60372;SDS011;46216;52.220;5.134;2022-07-30T07:06:07;7.00;;;3.60;;
60372;SDS011;46216;52.220;5.134;2022-07-30T07:08:34;7.32;;;3.47;;
60372;SDS011;46216;52.220;5.134;2022-07-30T07:11:00;9.80;;;3.78;;
60372;SDS011;46216;52.220;5.134;2022-07-30T07:13:25;8.30;;;3.85;;
60372;SDS011;46216;52.220;5.134;2022-07-30T07:15:51;6.47;;;3.70;;
60372;SDS011;46216;52.220;5.134;2022-07-30T07:18:16;5.70;;;3.83;;
60372;SDS011;46216;52.220;5.134;2022-07-30T07:20:41;8.85;;;4.00;;
60372;SDS011;46216;52.220;5.134;2022-07-30T07:23:07;7.85;;;3.70;;
60372;SDS011;46216;52.220;5.134;2022-07-30T07:25:33;9.02;;;4.20;;
60372;SDS011;46216;52.220;5.134;2022-07-30T07:27:58;7.15;;;3.25;;
60372;SDS011;46216;52.220;5.134;2022-07-30T07:30:23;9.30;;;3.63;;
60372;SDS011;46216;52.220;5.134;2022-07-30T07:32:49;6.88;;;3.50;;
60372;SDS011;46216;52.220;5.134;2022-07-30T07:35:14;7.55;;;3.47;;
60372;SDS011;46216;52.220;5.134;2022-07-30T07:37:39;6.22;;;3.40;;
60372;SDS011;46216;52.220;5.134;2022-07-30T07:40:05;7.85;;;3.20;;
60372;SDS011;46216;52.220;5.134;2022-07-30T07:42:31;7.68;;;3.88;;
60372;SDS011;46216;52.220;5.134;2022-07-30T07:44:56;8.27;;;4.00;;
60372;SDS011;46216;52.220;5.134;2022-07-30T07:47:22;7.20;;;3.20;;
60372;SDS011;46216;52.220;5.134;2022-07-30T07:49:47;7.03;;;3.33;;
60372;SDS011;46216;52.220;5.134;2022-07-30T07:52:13;5.60;;;2.90;;
60372;SDS011;46216;52.220;5.134;2022-07-30T07:54:38;5.95;;;2.80;;
60372;SDS011;46216;52.220;5.134;2022-07-30T07:57:03;8.40;;;2.80;;
60372;SDS011;46216;52.220;5.134;2022-07-30T07:59:32;6.05;;;2.60;;
60372;SDS011;46216;52.220;5.134;2022-07-30T08:01:57;6.25;;;2.78;;
60372;SDS011;46216;52.220;5.134;2022-07-30T08:04:23;7.93;;;3.00;;
60372;SDS011;46216;52.220;5.134;2022-07-30T08:06:48;6.35;;;2.70;;
60372;SDS011;46216;52.220;5.134;2022-07-30T08:09:13;5.03;;;2.42;;
60372;SDS011;46216;52.220;5.134;2022-07-30T08:11:39;8.75;;;2.88;;
60372;SDS011;46216;52.220;5.134;2022-07-30T08:14:04;4.50;;;2.28;;
60372;SDS011;46216;52.220;5.134;2022-07-30T08:16:29;4.60;;;2.50;;
60372;SDS011;46216;52.220;5.134;2022-07-30T08:18:55;6.40;;;2.97;;
60372;SDS011;46216;52.220;5.134;2022-07-30T08:21:20;5.53;;;2.88;;
60372;SDS011;46216;52.220;5.134;2022-07-30T08:23:45;5.55;;;2.47;;
60372;SDS011;46216;52.220;5.134;2022-07-30T08:26:10;6.18;;;2.97;;
60372;SDS011;46216;52.220;5.134;2022-07-30T08:28:36;6.35;;;2.70;;
60372;SDS011;46216;52.220;5.134;2022-07-30T08:31:01;5.45;;;2.72;;
60372;SDS011;46216;52.220;5.134;2022-07-30T08:33:27;6.75;;;2.70;;
60372;SDS011;46216;52.220;5.134;2022-07-30T08:35:52;3.17;;;2.50;;
60372;SDS011;46216;52.220;5.134;2022-07-30T08:38:18;5.75;;;2.75;;
60372;SDS011;46216;52.220;5.134;2022-07-30T08:40:43;4.35;;;2.72;;
60372;SDS011;46216;52.220;5.134;2022-07-30T08:43:09;6.00;;;2.88;;
60372;SDS011;46216;52.220;5.134;2022-07-30T08:45:35;6.22;;;2.80;;
60372;SDS011;46216;52.220;5.134;2022-07-30T08:48:01;4.70;;;2.90;;
60372;SDS011;46216;52.220;5.134;2022-07-30T08:50:30;5.75;;;3.13;;
60372;SDS011;46216;52.220;5.134;2022-07-30T08:52:56;5.15;;;2.70;;
60372;SDS011;46216;52.220;5.134;2022-07-30T08:55:21;6.95;;;2.75;;
60372;SDS011;46216;52.220;5.134;2022-07-30T08:57:47;5.72;;;2.70;;
60372;SDS011;46216;52.220;5.134;2022-07-30T09:00:14;3.25;;;2.28;;
60372;SDS011;46216;52.220;5.134;2022-07-30T09:02:40;4.10;;;2.60;;
60372;SDS011;46216;52.220;5.134;2022-07-30T09:05:06;5.38;;;2.90;;
60372;SDS011;46216;52.220;5.134;2022-07-30T09:07:33;4.03;;;2.45;;
60372;SDS011;46216;52.220;5.134;2022-07-30T09:09:59;6.50;;;2.63;;
60372;SDS011;46216;52.220;5.134;2022-07-30T09:15:06;5.72;;;2.67;;
60372;SDS011;46216;52.220;5.134;2022-07-30T09:17:48;7.05;;;2.40;;
60372;SDS011;46216;52.220;5.134;2022-07-30T09:20:14;4.68;;;2.20;;
60372;SDS011;46216;52.220;5.134;2022-07-30T09:22:44;2.95;;;2.00;;
60372;SDS011;46216;52.220;5.134;2022-07-30T09:25:14;4.05;;;2.20;;
60372;SDS011;46216;52.220;5.134;2022-07-30T09:27:46;5.80;;;2.40;;
60372;SDS011;46216;52.220;5.134;2022-07-30T09:30:15;6.07;;;2.70;;
60372;SDS011;46216;52.220;5.134;2022-07-30T09:32:48;4.53;;;2.58;;
60372;SDS011;46216;52.220;5.134;2022-07-30T09:35:14;6.07;;;2.20;;
60372;SDS011;46216;52.220;5.134;2022-07-30T09:37:40;3.28;;;2.05;;
60372;SDS011;46216;52.220;5.134;2022-07-30T09:40:12;4.40;;;2.17;;
60372;SDS011;46216;52.220;5.134;2022-07-30T09:42:42;3.65;;;2.10;;
60372;SDS011;46216;52.220;5.134;2022-07-30T09:45:09;4.15;;;2.25;;
60372;SDS011;46216;52.220;5.134;2022-07-30T09:47:37;5.63;;;2.17;;
60372;SDS011;46216;52.220;5.134;2022-07-30T09:50:11;5.25;;;2.28;;
60372;SDS011;46216;52.220;5.134;2022-07-30T09:52:38;5.60;;;1.95;;
60372;SDS011;46216;52.220;5.134;2022-07-30T09:55:06;6.45;;;2.20;;
60372;SDS011;46216;52.220;5.134;2022-07-30T09:57:32;5.32;;;2.47;;
60372;SDS011;46216;52.220;5.134;2022-07-30T09:59:58;3.42;;;2.00;;
60372;SDS011;46216;52.220;5.134;2022-07-30T10:02:41;3.38;;;2.10;;
60372;SDS011;46216;52.220;5.134;2022-07-30T10:05:11;4.72;;;2.10;;
60372;SDS011;46216;52.220;5.134;2022-07-30T10:07:38;5.40;;;1.90;;
60372;SDS011;46216;52.220;5.134;2022-07-30T10:10:11;5.32;;;2.53;;
60372;SDS011;46216;52.220;5.134;2022-07-30T10:12:36;3.40;;;2.10;;
60372;SDS011;46216;52.220;5.134;2022-07-30T10:15:03;5.43;;;2.28;;
60372;SDS011;46216;52.220;5.134;2022-07-30T10:17:30;5.95;;;2.20;;
60372;SDS011;46216;52.220;5.134;2022-07-30T10:19:56;4.90;;;2.30;;
60372;SDS011;46216;52.220;5.134;2022-07-30T10:22:25;4.72;;;2.15;;
60372;SDS011;46216;52.220;5.134;2022-07-30T10:24:51;4.45;;;2.28;;
60372;SDS011;46216;52.220;5.134;2022-07-30T10:27:17;3.25;;;1.77;;
60372;SDS011;46216;52.220;5.134;2022-07-30T10:29:42;4.55;;;2.47;;
60372;SDS011;46216;52.220;5.134;2022-07-30T10:32:12;5.00;;;2.17;;
60372;SDS011;46216;52.220;5.134;2022-07-30T10:34:37;6.13;;;2.13;;
60372;SDS011;46216;52.220;5.134;2022-07-30T10:37:03;3.67;;;2.20;;
60372;SDS011;46216;52.220;5.134;2022-07-30T10:39:36;6.95;;;2.47;;
60372;SDS011;46216;52.220;5.134;2022-07-30T10:47:50;3.40;;;1.80;;
60372;SDS011;46216;52.220;5.134;2022-07-30T10:50:19;3.97;;;2.00;;
60372;SDS011;46216;52.220;5.134;2022-07-30T10:52:54;4.47;;;1.67;;
60372;SDS011;46216;52.220;5.134;2022-07-30T10:55:25;3.05;;;1.80;;
60372;SDS011;46216;52.220;5.134;2022-07-30T11:00:24;3.83;;;2.13;;
60372;SDS011;46216;52.220;5.134;2022-07-30T11:05:36;3.05;;;2.30;;
60372;SDS011;46216;52.220;5.134;2022-07-30T11:10:52;3.33;;;1.70;;
60372;SDS011;46216;52.220;5.134;2022-07-30T11:13:18;3.95;;;1.73;;
60372;SDS011;46216;52.220;5.134;2022-07-30T11:16:12;3.03;;;1.70;;
60372;SDS011;46216;52.220;5.134;2022-07-30T11:19:00;3.38;;;1.60;;
60372;SDS011;46216;52.220;5.134;2022-07-30T11:21:42;3.53;;;1.60;;
60372;SDS011;46216;52.220;5.134;2022-07-30T11:27:27;4.20;;;1.38;;
60372;SDS011;46216;52.220;5.134;2022-07-30T11:32:41;1.73;;;1.30;;
60372;SDS011;46216;52.220;5.134;2022-07-30T11:37:57;3.17;;;1.50;;
60372;SDS011;46216;52.220;5.134;2022-07-30T11:43:17;2.03;;;1.27;;
60372;SDS011;46216;52.220;5.134;2022-07-30T11:45:46;1.40;;;1.23;;
60372;SDS011;46216;52.220;5.134;2022-07-30T11:48:14;5.32;;;2.05;;
60372;SDS011;46216;52.220;5.134;2022-07-30T11:50:40;5.47;;;3.72;;
60372;SDS011;46216;52.220;5.134;2022-07-30T11:53:07;2.78;;;1.60;;
60372;SDS011;46216;52.220;5.134;2022-07-30T11:55:39;5.70;;;1.83;;
60372;SDS011;46216;52.220;5.134;2022-07-30T11:58:10;1.90;;;1.42;;
60372;SDS011;46216;52.220;5.134;2022-07-30T12:00:49;3.75;;;1.50;;
60372;SDS011;46216;52.220;5.134;2022-07-30T12:03:15;4.68;;;1.50;;
60372;SDS011;46216;52.220;5.134;2022-07-30T12:05:43;3.33;;;1.60;;
60372;SDS011;46216;52.220;5.134;2022-07-30T12:08:09;2.78;;;1.80;;
60372;SDS011;46216;52.220;5.134;2022-07-30T12:10:35;3.75;;;1.40;;
60372;SDS011;46216;52.220;5.134;2022-07-30T12:13:09;3.10;;;1.67;;
60372;SDS011;46216;52.220;5.134;2022-07-30T12:15:38;4.50;;;1.55;;
60372;SDS011;46216;52.220;5.134;2022-07-30T12:18:05;3.95;;;2.47;;
60372;SDS011;46216;52.220;5.134;2022-07-30T12:20:32;3.25;;;1.77;;
60372;SDS011;46216;52.220;5.134;2022-07-30T12:22:57;2.88;;;1.50;;
60372;SDS011;46216;52.220;5.134;2022-07-30T12:25:23;4.63;;;1.52;;
60372;SDS011;46216;52.220;5.134;2022-07-30T12:27:49;2.38;;;1.50;;
60372;SDS011;46216;52.220;5.134;2022-07-30T12:30:15;4.10;;;1.60;;
60372;SDS011;46216;52.220;5.134;2022-07-30T12:32:42;2.95;;;1.30;;
60372;SDS011;46216;52.220;5.134;2022-07-30T12:35:09;4.85;;;2.05;;
60372;SDS011;46216;52.220;5.134;2022-07-30T12:37:35;5.57;;;2.70;;
60372;SDS011;46216;52.220;5.134;2022-07-30T12:42:31;3.28;;;1.48;;
60372;SDS011;46216;52.220;5.134;2022-07-30T12:44:56;3.63;;;1.67;;
60372;SDS011;46216;52.220;5.134;2022-07-30T12:47:26;3.83;;;1.70;;
60372;SDS011;46216;52.220;5.134;2022-07-30T12:49:53;4.28;;;1.70;;
60372;SDS011;46216;52.220;5.134;2022-07-30T12:52:21;4.35;;;1.80;;
60372;SDS011;46216;52.220;5.134;2022-07-30T12:55:06;3.20;;;1.60;;
60372;SDS011;46216;52.220;5.134;2022-07-30T12:57:55;2.65;;;1.60;;
60372;SDS011;46216;52.220;5.134;2022-07-30T13:00:29;3.78;;;1.55;;
60372;SDS011;46216;52.220;5.134;2022-07-30T13:03:19;4.93;;;1.67;;
60372;SDS011;46216;52.220;5.134;2022-07-30T13:05:45;5.35;;;2.38;;
60372;SDS011;46216;52.220;5.134;2022-07-30T13:08:13;5.18;;;1.77;;
60372;SDS011;46216;52.220;5.134;2022-07-30T13:10:52;2.95;;;1.90;;
60372;SDS011;46216;52.220;5.134;2022-07-30T13:13:22;3.47;;;2.00;;
60372;SDS011;46216;52.220;5.134;2022-07-30T13:15:57;3.30;;;1.90;;
60372;SDS011;46216;52.220;5.134;2022-07-30T13:18:23;2.50;;;1.60;;
60372;SDS011;46216;52.220;5.134;2022-07-30T13:20:48;6.20;;;2.35;;
60372;SDS011;46216;52.220;5.134;2022-07-30T13:23:14;5.45;;;2.30;;
60372;SDS011;46216;52.220;5.134;2022-07-30T13:25:39;3.47;;;2.00;;
60372;SDS011;46216;52.220;5.134;2022-07-30T13:28:04;4.10;;;1.90;;
60372;SDS011;46216;52.220;5.134;2022-07-30T13:30:30;5.13;;;1.75;;
60372;SDS011;46216;52.220;5.134;2022-07-30T13:32:55;6.53;;;2.30;;
60372;SDS011;46216;52.220;5.134;2022-07-30T13:35:20;3.28;;;1.80;;
60372;SDS011;46216;52.220;5.134;2022-07-30T13:37:46;5.15;;;2.00;;
60372;SDS011;46216;52.220;5.134;2022-07-30T13:40:11;4.40;;;1.60;;
60372;SDS011;46216;52.220;5.134;2022-07-30T13:42:36;4.70;;;1.60;;
60372;SDS011;46216;52.220;5.134;2022-07-30T13:45:02;5.00;;;1.80;;
60372;SDS011;46216;52.220;5.134;2022-07-30T13:47:27;7.18;;;2.13;;
60372;SDS011;46216;52.220;5.134;2022-07-30T13:49:53;4.15;;;1.75;;
60372;SDS011;46216;52.220;5.134;2022-07-30T13:52:18;2.45;;;1.60;;
60372;SDS011;46216;52.220;5.134;2022-07-30T13:54:43;4.30;;;1.95;;
60372;SDS011;46216;52.220;5.134;2022-07-30T13:57:09;4.47;;;1.40;;
60372;SDS011;46216;52.220;5.134;2022-07-30T13:59:34;5.00;;;1.60;;
60372;SDS011;46216;52.220;5.134;2022-07-30T14:01:59;5.18;;;1.83;;
60372;SDS011;46216;52.220;5.134;2022-07-30T14:04:25;4.97;;;1.70;;
60372;SDS011;46216;52.220;5.134;2022-07-30T14:06:50;2.42;;;1.55;;
60372;SDS011;46216;52.220;5.134;2022-07-30T14:09:15;3.90;;;1.80;;
60372;SDS011;46216;52.220;5.134;2022-07-30T14:11:41;4.10;;;1.48;;
60372;SDS011;46216;52.220;5.134;2022-07-30T14:14:06;3.83;;;1.70;;
60372;SDS011;46216;52.220;5.134;2022-07-30T14:16:31;5.03;;;2.50;;
60372;SDS011;46216;52.220;5.134;2022-07-30T14:18:57;4.35;;;1.50;;
60372;SDS011;46216;52.220;5.134;2022-07-30T14:21:22;2.42;;;1.95;;
60372;SDS011;46216;52.220;5.134;2022-07-30T14:23:47;4.38;;;2.10;;
60372;SDS011;46216;52.220;5.134;2022-07-30T14:26:13;4.35;;;2.33;;
60372;SDS011;46216;52.220;5.134;2022-07-30T14:28:38;5.18;;;1.95;;
60372;SDS011;46216;52.220;5.134;2022-07-30T14:31:04;6.40;;;3.60;;
60372;SDS011;46216;52.220;5.134;2022-07-30T14:33:29;3.08;;;2.00;;
60372;SDS011;46216;52.220;5.134;2022-07-30T14:35:54;4.65;;;2.67;;
60372;SDS011;46216;52.220;5.134;2022-07-30T14:38:20;5.00;;;2.13;;
60372;SDS011;46216;52.220;5.134;2022-07-30T14:40:46;2.72;;;1.90;;
60372;SDS011;46216;52.220;5.134;2022-07-30T14:43:11;3.17;;;1.70;;
60372;SDS011;46216;52.220;5.134;2022-07-30T14:45:38;2.95;;;1.50;;
60372;SDS011;46216;52.220;5.134;2022-07-30T14:48:04;5.10;;;1.85;;
60372;SDS011;46216;52.220;5.134;2022-07-30T14:50:29;5.00;;;1.70;;
60372;SDS011;46216;52.220;5.134;2022-07-30T14:52:54;4.28;;;1.60;;
60372;SDS011;46216;52.220;5.134;2022-07-30T14:55:20;4.93;;;1.70;;
60372;SDS011;46216;52.220;5.134;2022-07-30T14:57:46;3.67;;;1.50;;
60372;SDS011;46216;52.220;5.134;2022-07-30T15:00:11;3.95;;;1.65;;
60372;SDS011;46216;52.220;5.134;2022-07-30T15:02:37;6.38;;;1.70;;
60372;SDS011;46216;52.220;5.134;2022-07-30T15:05:04;5.25;;;1.55;;
60372;SDS011;46216;52.220;5.134;2022-07-30T15:07:29;5.05;;;1.80;;
60372;SDS011;46216;52.220;5.134;2022-07-30T15:09:55;4.68;;;1.75;;
60372;SDS011;46216;52.220;5.134;2022-07-30T15:12:20;3.05;;;1.73;;
60372;SDS011;46216;52.220;5.134;2022-07-30T15:14:46;5.82;;;2.00;;